Location Norrisville, MD, US

ob CW6888 172315Z AUTO 14003G06KT  SN FG M01/M02 A3016 RMK SLPNO 

2018.02.17 2315 UTC
Wind from the SE (139 degrees) at 3.0 MPH (3 KT) gusting to 7.0 MPH (6 KT)
Visibility    Mile(s)
Weather: SNOWFOG
Temperature 30.10 F (-1 C)
Dew Point 28.59 F (-2 C)
Relative Humidity 94%
Pressure   30.16 in. Hg (1021 hPa)
Rain  0.00 in.
Daily Rain  in.

Station Name  Sola Virtus Observatory
Longitude, Latitude  -76.5447, 39.7025
Elevation 738
Station URL http://sola-virtus-observatory.org
Software Type VWS V15.00